Time;durP1;ratioP1;P1;durP2;ratioP2;P2;SDS_P1;SDS_P2;PMS_P1;PMS_P2;Temp;Humidity;BMP_temperature;BMP_pressure;BME280_temperature;BME280_humidity;BME280_pressure;Samples;Min_cycle;Max_cycle;Signal;HPM_P1;HPM_P2
2022/09/19 00:01:07;;;;;;;0.70;0.70;;;21.50;66.40;;;;;;5004035;28;43485;-69
2022/09/19 00:03:36;;;;;;;0.60;0.60;;;21.50;66.30;;;;;;4998067;28;43457;-71
2022/09/19 00:06:05;;;;;;;0.50;0.50;;;21.50;66.30;;;;;;4982125;28;44000;-72
2022/09/19 00:08:34;;;;;;;0.60;0.60;;;21.40;66.40;;;;;;5004285;28;45741;-71
2022/09/19 00:11:02;;;;;;;0.57;0.57;;;21.40;66.90;;;;;;5003208;28;43456;-72
2022/09/19 00:13:30;;;;;;;0.50;0.50;;;21.40;66.80;;;;;;5001104;28;43378;-72
2022/09/19 00:15:58;;;;;;;0.50;0.50;;;21.50;66.50;;;;;;4998418;28;43829;-70
2022/09/19 00:18:27;;;;;;;0.50;0.50;;;21.50;66.20;;;;;;4994104;28;43884;-72
2022/09/19 00:20:55;;;;;;;0.50;0.50;;;21.50;66.10;;;;;;4990829;28;43422;-71
2022/09/19 00:26:10;;;;;;;0.60;0.60;;;21.50;66.60;;;;;;4985110;28;43405;-71
2022/09/19 00:28:38;;;;;;;0.53;0.53;;;21.50;66.40;;;;;;4999404;28;43597;-73
2022/09/19 00:31:06;;;;;;;0.40;0.40;;;21.50;66.40;;;;;;4976090;28;44729;-70
2022/09/19 00:33:34;;;;;;;0.40;0.40;;;21.40;66.40;;;;;;4989345;28;43837;-74
2022/09/19 00:36:03;;;;;;;0.50;0.50;;;21.40;66.60;;;;;;4974171;28;43472;-72
2022/09/19 00:38:31;;;;;;;0.50;0.50;;;21.30;66.90;;;;;;4997573;28;43908;-75
2022/09/19 00:40:59;;;;;;;0.93;0.70;;;21.40;66.80;;;;;;4983465;28;44724;-71
2022/09/19 00:46:23;;;;;;;0.60;0.60;;;21.30;66.70;;;;;;5084985;27;43958;-70
2022/09/19 00:48:53;;;;;;;0.53;0.53;;;21.30;67.10;;;;;;5079315;27;43403;-71
2022/09/19 00:51:31;;;;;;;0.40;0.40;;;21.30;67.10;;;;;;5081752;28;43489;-70
2022/09/19 00:54:01;;;;;;;0.57;0.57;;;21.40;66.70;;;;;;5083460;28;44473;-71
2022/09/19 00:56:29;;;;;;;0.47;0.47;;;21.60;66.30;;;;;;5082612;27;43591;-71
2022/09/19 00:58:57;;;;;;;0.40;0.40;;;21.70;65.80;;;;;;5081326;28;44635;-70
2022/09/19 01:01:27;;;;;;;0.60;0.60;;;21.70;65.50;;;;;;5084713;27;43383;-70
2022/09/19 01:03:55;;;;;;;0.50;0.50;;;21.70;65.40;;;;;;5084459;28;43473;-70
2022/09/19 01:06:39;;;;;;;0.50;0.50;;;21.70;65.70;;;;;;5084388;28;45654;-71
2022/09/19 01:09:28;;;;;;;0.60;0.60;;;21.60;65.90;;;;;;5081435;28;43422;-70
2022/09/19 01:12:15;;;;;;;0.40;0.40;;;21.50;66.50;;;;;;5085810;27;43430;-71
2022/09/19 01:14:58;;;;;;;0.53;0.53;;;21.50;66.50;;;;;;5077837;28;43503;-71
2022/09/19 01:17:31;;;;;;;0.50;0.50;;;21.40;66.30;;;;;;5083626;27;43837;-71
2022/09/19 01:20:25;;;;;;;0.50;0.50;;;21.40;66.40;;;;;;5084156;28;44102;-72
2022/09/19 01:23:05;;;;;;;0.50;0.50;;;21.30;66.60;;;;;;5077419;28;43438;-71
2022/09/19 01:25:36;;;;;;;0.50;0.50;;;21.30;67.00;;;;;;5073540;28;43415;-71
2022/09/19 01:28:10;;;;;;;0.50;0.50;;;21.30;66.80;;;;;;5083767;28;45896;-70
2022/09/19 01:30:48;;;;;;;0.40;0.40;;;21.30;66.80;;;;;;5083979;28;43447;-71
2022/09/19 01:33:17;;;;;;;0.43;0.43;;;21.30;66.80;;;;;;5084413;28;43448;-70
2022/09/19 01:35:53;;;;;;;0.50;0.50;;;21.20;67.00;;;;;;5084456;28;43505;-70
2022/09/19 01:38:22;;;;;;;0.53;0.53;;;21.20;67.10;;;;;;5084120;28;46148;-72
2022/09/19 01:40:50;;;;;;;0.50;0.50;;;21.40;66.80;;;;;;5083179;28;43364;-71
2022/09/19 01:43:20;;;;;;;0.47;0.47;;;21.50;66.30;;;;;;5084162;28;43388;-71
2022/09/19 01:45:49;;;;;;;0.40;0.40;;;21.70;65.80;;;;;;5083567;28;43570;-71
2022/09/19 01:48:24;;;;;;;0.60;0.60;;;21.70;65.60;;;;;;5083900;27;44063;-71
2022/09/19 01:51:06;;;;;;;0.40;0.40;;;21.70;65.60;;;;;;5084023;28;43530;-70
2022/09/19 01:53:49;;;;;;;0.40;0.40;;;21.60;65.70;;;;;;5083491;28;43394;-71
2022/09/19 01:57:01;;;;;;;0.40;0.40;;;21.50;65.90;;;;;;5068448;28;44037;-71
2022/09/19 01:59:42;;;;;;;0.70;0.70;;;21.40;66.50;;;;;;5070219;28;43807;-71
2022/09/19 02:02:14;;;;;;;0.47;0.47;;;21.40;66.50;;;;;;5070121;28;43970;-71
2022/09/19 02:04:44;;;;;;;0.50;0.50;;;21.40;66.50;;;;;;5070001;28;43502;-73
2022/09/19 02:07:14;;;;;;;0.43;0.43;;;21.30;66.50;;;;;;5070912;28;43539;-72
2022/09/19 02:09:45;;;;;;;0.50;0.50;;;21.30;66.70;;;;;;5071020;28;43920;-71
2022/09/19 02:12:14;;;;;;;0.40;0.40;;;21.30;67.00;;;;;;5067165;28;43438;-75
2022/09/19 02:14:47;;;;;;;0.40;0.40;;;21.30;66.90;;;;;;5064397;28;43950;-73
2022/09/19 02:17:15;;;;;;;0.57;0.57;;;21.20;66.70;;;;;;5070002;28;43522;-72
2022/09/19 02:19:46;;;;;;;0.43;0.43;;;21.20;66.70;;;;;;5069214;28;43847;-70
2022/09/19 02:22:16;;;;;;;0.60;0.60;;;21.20;67.20;;;;;;5069988;28;44940;-72
2022/09/19 02:24:45;;;;;;;0.50;0.50;;;21.20;67.10;;;;;;5068971;28;43422;-71
2022/09/19 02:27:16;;;;;;;0.40;0.40;;;21.40;66.80;;;;;;5070494;28;43915;-71
2022/09/19 02:29:48;;;;;;;0.40;0.40;;;21.50;66.30;;;;;;5069523;28;46098;-71
2022/09/19 02:32:19;;;;;;;0.50;0.50;;;21.60;65.80;;;;;;5069921;28;43391;-71
2022/09/19 02:34:50;;;;;;;0.47;0.47;;;21.70;65.60;;;;;;5069453;28;43943;-70
2022/09/19 02:37:22;;;;;;;0.50;0.50;;;21.60;65.50;;;;;;5069999;28;43673;-71
2022/09/19 02:39:55;;;;;;;0.40;0.40;;;21.50;65.70;;;;;;5069502;28;44048;-71
2022/09/19 02:42:37;;;;;;;0.60;0.60;;;21.50;65.90;;;;;;5069390;28;43443;-72
2022/09/19 02:45:10;;;;;;;0.40;0.40;;;21.40;66.50;;;;;;5068214;28;43542;-70
2022/09/19 02:47:47;;;;;;;0.47;0.47;;;21.40;66.60;;;;;;5067550;28;43498;-72
2022/09/19 02:50:18;;;;;;;0.50;0.50;;;21.30;66.40;;;;;;5069123;28;45334;-71
2022/09/19 02:52:46;;;;;;;0.50;0.50;;;21.30;66.50;;;;;;5069210;28;43498;-70
2022/09/19 02:55:23;;;;;;;0.40;0.40;;;21.20;66.60;;;;;;5070195;28;43394;-71
2022/09/19 02:57:52;;;;;;;0.50;0.50;;;21.20;66.90;;;;;;5065884;28;43648;-69
2022/09/19 03:00:22;;;;;;;0.73;0.50;;;21.30;66.80;;;;;;5100893;27;43826;-73
2022/09/19 03:02:56;;;;;;;0.40;0.40;;;21.40;66.40;;;;;;5064868;28;44521;-70
2022/09/19 03:05:32;;;;;;;0.40;0.40;;;21.60;66.00;;;;;;5065769;28;43811;-71
2022/09/19 03:08:03;;;;;;;0.50;0.50;;;21.60;65.70;;;;;;5068483;28;43463;-70
2022/09/19 03:10:32;;;;;;;0.60;0.60;;;21.60;65.70;;;;;;5069229;28;43901;-71
2022/09/19 03:13:12;;;;;;;0.40;0.40;;;21.50;65.90;;;;;;5065540;28;43310;-74
2022/09/19 03:15:47;;;;;;;0.37;0.37;;;21.40;66.10;;;;;;5068802;28;43497;-72
2022/09/19 03:18:18;;;;;;;0.60;0.60;;;21.30;66.40;;;;;;5062656;28;43439;-71
2022/09/19 03:20:48;;;;;;;0.40;0.40;;;21.30;66.70;;;;;;5067327;28;44011;-71
2022/09/19 03:23:17;;;;;;;0.40;0.40;;;21.30;66.60;;;;;;5069121;28;45182;-71
2022/09/19 03:25:45;;;;;;;0.40;0.40;;;21.30;66.60;;;;;;5070657;28;43401;-73
2022/09/19 03:28:19;;;;;;;0.40;0.40;;;21.20;66.60;;;;;;5066758;28;43573;-71
2022/09/19 03:30:50;;;;;;;0.40;0.40;;;21.20;66.90;;;;;;5069212;28;44039;-70
2022/09/19 03:33:17;;;;;;;0.50;0.50;;;21.20;67.00;;;;;;5068603;28;45138;-69
2022/09/19 03:35:50;;;;;;;0.30;0.30;;;21.20;66.80;;;;;;5070411;28;43328;-71
2022/09/19 03:38:19;;;;;;;0.30;0.30;;;21.20;66.80;;;;;;5064234;28;43457;-70
2022/09/19 03:40:47;;;;;;;0.90;0.90;;;21.20;66.80;;;;;;5068740;28;45339;-71
2022/09/19 03:43:16;;;;;;;2.33;1.10;;;21.10;67.10;;;;;;5069437;28;44870;-70
2022/09/19 03:45:44;;;;;;;1.20;1.10;;;21.20;67.10;;;;;;5068592;28;43357;-72
2022/09/19 03:48:13;;;;;;;2.10;1.50;;;21.30;66.70;;;;;;5069772;28;43892;-73
2022/09/19 03:50:41;;;;;;;1.97;1.50;;;21.50;66.30;;;;;;5069697;28;43614;-71
2022/09/19 03:53:13;;;;;;;4.10;1.90;;;21.60;65.70;;;;;;5067837;28;43475;-70
2022/09/19 03:55:41;;;;;;;4.43;2.00;;;21.60;65.50;;;;;;5068849;28;43411;-72
2022/09/19 03:58:14;;;;;;;4.87;1.87;;;21.60;66.20;;;;;;5069954;28;43450;-71
2022/09/19 04:00:42;;;;;;;3.90;2.23;;;21.50;65.60;;;;;;5064814;28;45518;-72
2022/09/19 04:03:14;;;;;;;3.37;2.30;;;21.50;65.90;;;;;;5062376;28;43372;-70
2022/09/19 04:05:42;;;;;;;2.73;2.10;;;21.40;66.20;;;;;;5100184;27;43430;-72
2022/09/19 04:08:11;;;;;;;3.80;2.90;;;21.30;66.50;;;;;;5068769;28;43569;-72
2022/09/19 04:10:42;;;;;;;4.33;2.23;;;21.30;66.40;;;;;;5069753;28;43778;-71
2022/09/19 04:13:10;;;;;;;4.53;2.30;;;21.30;66.40;;;;;;5068542;28;44952;-71
2022/09/19 04:15:38;;;;;;;3.53;2.73;;;21.20;66.50;;;;;;5061634;28;43390;-71
2022/09/19 04:18:08;;;;;;;2.90;2.53;;;21.20;66.70;;;;;;5065916;28;43517;-70
2022/09/19 04:20:39;;;;;;;4.43;2.53;;;21.20;66.90;;;;;;5062817;28;43896;-72
2022/09/19 04:23:26;;;;;;;9.03;3.07;;;21.20;66.80;;;;;;5061859;28;43376;-71
2022/09/19 04:26:13;;;;;;;4.13;2.43;;;21.20;66.70;;;;;;5062342;28;43473;-74
2022/09/19 04:28:43;;;;;;;4.83;3.13;;;21.20;66.70;;;;;;5061988;28;43610;-71
2022/09/19 04:31:12;;;;;;;4.13;2.60;;;21.10;67.00;;;;;;5068657;28;45712;-70
2022/09/19 04:33:43;;;;;;;3.53;2.40;;;21.20;67.20;;;;;;5068266;28;43378;-71
2022/09/19 04:36:12;;;;;;;4.33;2.57;;;21.30;66.80;;;;;;5068209;28;44338;-71
2022/09/19 04:38:42;;;;;;;3.83;2.33;;;21.40;66.30;;;;;;5068185;28;43422;-71
2022/09/19 04:41:20;;;;;;;4.07;2.70;;;21.50;65.80;;;;;;5065512;28;45584;-70
2022/09/19 04:43:50;;;;;;;5.33;2.77;;;21.60;65.60;;;;;;5067621;28;44350;-72
2022/09/19 04:46:46;;;;;;;5.07;2.30;;;21.60;65.50;;;;;;5066939;28;43441;-73
2022/09/19 04:49:16;;;;;;;3.60;2.60;;;21.50;65.60;;;;;;5062009;28;43635;-71
2022/09/19 04:51:45;;;;;;;4.07;2.37;;;21.40;65.80;;;;;;5067637;28;45154;-70
2022/09/19 04:54:14;;;;;;;3.90;2.43;;;21.30;66.30;;;;;;5068091;28;44689;-71
2022/09/19 04:56:46;;;;;;;3.67;2.70;;;21.30;66.40;;;;;;5068196;28;43484;-71
2022/09/19 04:59:14;;;;;;;2.83;2.30;;;21.30;66.30;;;;;;5068267;28;43513;-72
2022/09/19 05:01:44;;;;;;;2.50;2.30;;;21.20;66.30;;;;;;5066781;28;45331;-72
2022/09/19 05:04:16;;;;;;;2.50;2.30;;;21.20;66.40;;;;;;5067440;28;44504;-74
2022/09/19 05:06:46;;;;;;;3.33;2.57;;;21.20;66.90;;;;;;5060801;28;43407;-70
2022/09/19 05:09:16;;;;;;;2.87;2.30;;;21.20;66.90;;;;;;5061883;28;43503;-71
2022/09/19 05:11:48;;;;;;;2.60;2.33;;;21.30;66.60;;;;;;5059758;28;45358;-72
2022/09/19 05:14:18;;;;;;;2.73;2.53;;;21.40;66.30;;;;;;5064981;28;45087;-70
2022/09/19 05:16:54;;;;;;;2.83;2.47;;;21.40;66.10;;;;;;5068032;28;43744;-71
2022/09/19 05:19:22;;;;;;;3.80;2.60;;;21.30;66.20;;;;;;5069602;28;43558;-71
2022/09/19 05:21:54;;;;;;;3.70;2.50;;;21.30;66.50;;;;;;5061158;28;44050;-72
2022/09/19 05:24:23;;;;;;;2.63;2.40;;;21.30;66.30;;;;;;5067880;28;44775;-71
2022/09/19 05:26:54;;;;;;;2.97;2.60;;;21.30;66.40;;;;;;5067083;28;43433;-71
2022/09/19 05:29:22;;;;;;;2.30;2.10;;;21.20;66.30;;;;;;5068814;28;43502;-71
2022/09/19 05:32:04;;;;;;;3.43;2.50;;;21.20;66.70;;;;;;5065214;28;44099;-71
2022/09/19 05:34:38;;;;;;;3.67;2.30;;;21.20;66.90;;;;;;5069289;28;43380;-73
2022/09/19 05:37:10;;;;;;;2.77;2.50;;;21.20;66.70;;;;;;5072529;28;43324;-71
2022/09/19 05:39:54;;;;;;;2.73;2.30;;;21.20;66.70;;;;;;5071391;28;43502;-72
2022/09/19 05:42:32;;;;;;;2.67;2.43;;;21.10;66.60;;;;;;5071166;28;46652;-71
2022/09/19 05:45:00;;;;;;;2.53;2.33;;;21.10;66.80;;;;;;5072442;28;43861;-71
2022/09/19 05:47:28;;;;;;;5.27;2.50;;;21.10;67.10;;;;;;5072003;28;43426;-71
2022/09/19 05:49:57;;;;;;;2.50;2.30;;;21.20;67.70;;;;;;5071682;28;43455;-70
2022/09/19 05:55:13;;;;;;;2.73;2.50;;;21.50;66.10;;;;;;5064336;28;43371;-71
2022/09/19 05:57:52;;;;;;;2.50;2.30;;;21.50;65.70;;;;;;5067324;28;43430;-70
2022/09/19 06:00:20;;;;;;;2.50;2.30;;;21.50;65.60;;;;;;5070660;28;43562;-71
2022/09/19 06:02:55;;;;;;;2.23;2.03;;;21.50;65.80;;;;;;5070810;28;45510;-70
2022/09/19 06:05:23;;;;;;;2.80;2.37;;;21.40;65.90;;;;;;5070457;28;44740;-71
2022/09/19 06:07:54;;;;;;;2.50;2.30;;;21.30;66.40;;;;;;5070093;28;43782;-71
2022/09/19 06:10:21;;;;;;;3.10;2.53;;;21.30;66.60;;;;;;5070868;28;44233;-71
2022/09/19 06:12:49;;;;;;;2.37;2.20;;;21.20;66.40;;;;;;5070364;28;45480;-71
2022/09/19 06:15:17;;;;;;;2.13;2.00;;;21.20;66.50;;;;;;5070712;28;44428;-71
2022/09/19 06:17:49;;;;;;;2.50;2.00;;;21.20;66.60;;;;;;5070716;28;43375;-70
2022/09/19 06:20:19;;;;;;;2.30;2.07;;;21.10;66.80;;;;;;5071558;28;43422;-70
2022/09/19 06:23:02;;;;;;;2.90;2.20;;;21.10;67.00;;;;;;5062427;28;43787;-72
2022/09/19 06:25:30;;;;;;;2.23;2.13;;;21.30;66.70;;;;;;5092309;27;43481;-71
2022/09/19 06:27:59;;;;;;;2.60;2.40;;;21.40;66.40;;;;;;5066069;28;43453;-71
2022/09/19 06:30:27;;;;;;;2.43;2.23;;;21.40;66.20;;;;;;5071354;28;43438;-71
2022/09/19 06:33:13;;;;;;;2.10;2.00;;;21.30;66.00;;;;;;5069925;28;43485;-73
2022/09/19 06:35:48;;;;;;;1.90;1.80;;;21.30;66.40;;;;;;5071887;28;43493;-71
2022/09/19 06:38:19;;;;;;;2.40;2.27;;;21.30;66.30;;;;;;5070716;28;43403;-71
2022/09/19 06:40:48;;;;;;;2.33;2.20;;;21.30;66.20;;;;;;5070187;28;43553;-71
2022/09/19 06:43:30;;;;;;;2.00;1.90;;;21.20;66.30;;;;;;5070442;28;43943;-71
2022/09/19 06:46:32;;;;;;;2.10;2.00;;;21.20;66.70;;;;;;5056820;28;43553;-72
2022/09/19 06:49:11;;;;;;;2.50;2.30;;;21.20;66.90;;;;;;5071528;28;43425;-69
2022/09/19 06:51:50;;;;;;;3.00;2.40;;;21.20;66.70;;;;;;5064703;28;43514;-71
2022/09/19 06:54:22;;;;;;;2.50;2.40;;;21.10;66.70;;;;;;5071362;28;43892;-71
2022/09/19 06:56:50;;;;;;;1.53;1.53;;;21.10;66.80;;;;;;5069610;28;44706;-71
2022/09/19 06:59:21;;;;;;;2.00;1.90;;;21.10;67.20;;;;;;5066719;28;43323;-71
2022/09/19 07:01:49;;;;;;;1.80;1.80;;;21.10;67.00;;;;;;5070209;28;43479;-71
2022/09/19 07:04:18;;;;;;;2.17;2.07;;;21.10;66.90;;;;;;5069730;28;45767;-70
2022/09/19 07:06:56;;;;;;;2.17;2.03;;;21.10;66.80;;;;;;5066280;28;43752;-70
2022/09/19 07:09:25;;;;;;;1.97;1.87;;;21.00;67.00;;;;;;5066032;28;43396;-71
2022/09/19 07:11:56;;;;;;;2.10;2.00;;;21.10;67.40;;;;;;5066460;28;43593;-71
2022/09/19 07:14:27;;;;;;;2.00;1.90;;;21.20;67.10;;;;;;5069648;28;43838;-71
2022/09/19 07:16:55;;;;;;;3.03;2.10;;;21.30;66.60;;;;;;5067610;28;43969;-70
2022/09/19 07:19:23;;;;;;;2.10;2.00;;;21.40;66.10;;;;;;5064191;28;43456;-71
2022/09/19 07:22:16;;;;;;;1.97;1.87;;;21.50;65.90;;;;;;5071184;28;43391;-75
2022/09/19 07:24:58;;;;;;;2.00;1.90;;;21.50;65.70;;;;;;5068569;28;44041;-70
2022/09/19 07:27:35;;;;;;;2.20;2.10;;;21.40;65.70;;;;;;5069150;28;43376;-71
2022/09/19 07:30:05;;;;;;;1.90;1.80;;;21.30;65.90;;;;;;5069450;28;43336;-70
2022/09/19 07:32:33;;;;;;;2.00;1.90;;;21.30;66.50;;;;;;5069903;28;43411;-70
2022/09/19 07:35:01;;;;;;;1.70;1.60;;;21.20;66.60;;;;;;5067657;28;44025;-70
2022/09/19 07:37:29;;;;;;;1.87;1.77;;;21.20;66.60;;;;;;5068511;28;44693;-71
2022/09/19 07:40:18;;;;;;;1.50;1.50;;;21.20;66.60;;;;;;5064812;28;43425;-70
2022/09/19 07:43:12;;;;;;;1.90;1.80;;;21.10;66.60;;;;;;5071035;28;43360;-69
2022/09/19 07:45:52;;;;;;;1.73;1.70;;;21.10;67.10;;;;;;5068536;28;44065;-69
2022/09/19 07:48:41;;;;;;;1.70;1.70;;;21.10;67.10;;;;;;5070006;28;43425;-72
2022/09/19 07:51:34;;;;;;;1.87;1.77;;;21.20;66.60;;;;;;5069019;28;43755;-70
2022/09/19 07:54:02;;;;;;;1.90;1.80;;;21.30;66.40;;;;;;5063347;28;43411;-71
2022/09/19 07:56:31;;;;;;;1.90;1.80;;;21.30;66.20;;;;;;5088085;27;45847;-72
2022/09/19 07:59:00;;;;;;;1.97;1.87;;;21.30;66.60;;;;;;5070432;28;43398;-70
2022/09/19 08:01:37;;;;;;;1.80;1.70;;;21.30;66.60;;;;;;5062507;28;43498;-72
2022/09/19 08:04:10;;;;;;;1.50;1.50;;;21.20;66.40;;;;;;5069525;28;43592;-71
2022/09/19 08:06:48;;;;;;;1.30;1.30;;;21.20;66.60;;;;;;5069150;28;44066;-71
2022/09/19 08:09:19;;;;;;;1.70;1.70;;;21.20;66.60;;;;;;5068697;28;43485;-70
2022/09/19 08:12:12;;;;;;;1.90;1.80;;;21.10;67.00;;;;;;5068644;28;43540;-70
2022/09/19 08:14:45;;;;;;;1.50;1.50;;;21.10;67.00;;;;;;5062447;28;43419;-72
2022/09/19 08:17:13;;;;;;;1.43;1.43;;;21.10;66.90;;;;;;5068966;28;45651;-72
2022/09/19 08:19:43;;;;;;;1.73;1.63;;;21.10;66.90;;;;;;5089613;27;43417;-75
2022/09/19 08:22:12;;;;;;;1.77;1.77;;;21.00;66.80;;;;;;5070083;28;43335;-71
2022/09/19 08:24:47;;;;;;;1.90;1.80;;;21.00;67.30;;;;;;5068688;28;43415;-71
2022/09/19 08:27:17;;;;;;;1.80;1.70;;;21.10;67.20;;;;;;5069839;28;43847;-70
2022/09/19 08:29:45;;;;;;;1.80;1.80;;;21.20;66.90;;;;;;5068033;28;44748;-72
2022/09/19 08:32:16;;;;;;;1.60;1.60;;;21.30;66.60;;;;;;5068636;28;43461;-71
2022/09/19 08:34:44;;;;;;;1.77;1.77;;;21.30;66.30;;;;;;5066389;28;43442;-70
2022/09/19 08:37:14;;;;;;;1.60;1.60;;;21.30;66.30;;;;;;5065129;28;45733;-71
2022/09/19 08:40:15;;;;;;;1.70;1.70;;;21.30;66.70;;;;;;5064520;28;44660;-71
2022/09/19 08:42:41;;;;;;;1.57;1.57;;;21.30;67.30;;;;;;5067787;28;43438;-74
2022/09/19 08:45:15;;;;;;;1.87;1.77;;;21.20;66.50;;;;;;5068419;28;43448;-73
2022/09/19 08:47:45;;;;;;;1.43;1.43;;;21.20;66.60;;;;;;5066382;28;45985;-72
2022/09/19 08:50:15;;;;;;;1.57;1.57;;;21.10;66.70;;;;;;5067957;28;43432;-71
2022/09/19 08:52:46;;;;;;;1.60;1.60;;;21.10;67.20;;;;;;5068089;28;43387;-71
2022/09/19 08:55:21;;;;;;;1.43;1.43;;;21.10;67.00;;;;;;5068670;28;43439;-71
2022/09/19 08:57:54;;;;;;;1.50;1.50;;;21.10;67.00;;;;;;5060725;28;45813;-71
2022/09/19 09:00:24;;;;;;;1.67;1.57;;;21.10;67.00;;;;;;5068529;28;43420;-70
2022/09/19 09:02:56;;;;;;;1.40;1.40;;;21.00;67.00;;;;;;5064693;28;43410;-71
2022/09/19 09:05:44;;;;;;;1.40;1.40;;;21.00;67.40;;;;;;5068394;28;43522;-70
2022/09/19 09:08:18;;;;;;;1.60;1.60;;;21.10;67.10;;;;;;5065715;28;43957;-71
2022/09/19 09:10:55;;;;;;;1.70;1.60;;;21.30;66.90;;;;;;5071076;28;43494;-71
2022/09/19 09:13:37;;;;;;;1.40;1.40;;;21.40;66.40;;;;;;5071379;28;43451;-70
2022/09/19 09:16:30;;;;;;;1.43;1.40;;;21.40;66.10;;;;;;5072457;28;43386;-71
2022/09/19 09:19:10;;;;;;;1.47;1.47;;;21.40;66.10;;;;;;5071011;28;43897;-70
2022/09/19 09:21:42;;;;;;;1.40;1.40;;;21.30;66.30;;;;;;5070418;28;43442;-69
2022/09/19 09:24:14;;;;;;;1.30;1.30;;;21.20;66.50;;;;;;5065103;28;43785;-69
2022/09/19 09:27:37;;;;;;;1.47;1.47;;;21.20;67.00;;;;;;5066488;28;43582;-71
2022/09/19 09:30:17;;;;;;;1.63;1.53;;;21.10;66.80;;;;;;5070893;28;43926;-73
2022/09/19 09:33:10;;;;;;;1.40;1.40;;;21.10;66.90;;;;;;5066618;28;43470;-71
2022/09/19 09:35:39;;;;;;;1.50;1.50;;;21.10;67.00;;;;;;5071766;28;43444;-72
2022/09/19 09:38:17;;;;;;;1.20;1.20;;;21.00;67.40;;;;;;5071098;28;43593;-71
2022/09/19 09:43:37;;;;;;;1.30;1.30;;;21.20;67.00;;;;;;5064095;28;44076;-71
2022/09/19 09:46:08;;;;;;;1.57;1.57;;;21.30;66.50;;;;;;5070390;28;43429;-72
2022/09/19 09:48:38;;;;;;;1.70;1.60;;;21.40;66.20;;;;;;5072513;28;43690;-72
2022/09/19 09:51:20;;;;;;;1.40;1.40;;;21.40;66.10;;;;;;5070207;28;44015;-70
2022/09/19 09:54:03;;;;;;;1.50;1.50;;;21.30;66.10;;;;;;5094779;27;44365;-71
2022/09/19 09:56:32;;;;;;;1.53;1.30;;;21.20;66.30;;;;;;5071518;28;43786;-70
2022/09/19 09:59:07;;;;;;;1.50;1.50;;;21.20;66.60;;;;;;5071396;28;43442;-71
2022/09/19 10:04:30;;;;;;;1.30;1.30;;;21.10;66.90;;;;;;5070086;28;43470;-71
2022/09/19 10:07:14;;;;;;;1.40;1.40;;;21.10;67.00;;;;;;5070181;28;43751;-71
2022/09/19 10:09:49;;;;;;;1.50;1.50;;;21.10;67.00;;;;;;5070541;28;43553;-71
2022/09/19 10:12:22;;;;;;;1.53;1.53;;;21.00;67.00;;;;;;5066236;28;45505;-71
2022/09/19 10:15:15;;;;;;;1.50;1.50;;;21.00;67.50;;;;;;5070512;28;43851;-70
2022/09/19 10:17:53;;;;;;;1.50;1.50;;;21.00;67.20;;;;;;5069851;28;43415;-71
2022/09/19 10:20:25;;;;;;;1.40;1.40;;;21.00;67.20;;;;;;5070349;28;43438;-70
2022/09/19 10:22:59;;;;;;;1.20;1.20;;;21.00;67.20;;;;;;5063217;28;43825;-70
2022/09/19 10:25:30;;;;;;;1.43;1.43;;;21.00;67.30;;;;;;5069996;28;43324;-71
2022/09/19 10:28:02;;;;;;;1.50;1.50;;;21.00;67.70;;;;;;5097477;27;43430;-71
2022/09/19 10:30:41;;;;;;;1.37;1.37;;;21.10;67.40;;;;;;5070186;28;43424;-70
2022/09/19 10:33:28;;;;;;;1.30;1.30;;;21.20;66.90;;;;;;5069549;28;43966;-72
2022/09/19 10:35:59;;;;;;;1.40;1.40;;;21.40;66.50;;;;;;5063289;28;43340;-71
2022/09/19 10:38:27;;;;;;;1.23;1.23;;;21.40;66.20;;;;;;5069562;28;43438;-72
2022/09/19 10:40:56;;;;;;;1.90;1.30;;;21.40;66.90;;;;;;5069793;28;43545;-70
2022/09/19 10:43:30;;;;;;;1.40;1.40;;;21.30;66.30;;;;;;5069331;28;44084;-70
2022/09/19 10:46:06;;;;;;;1.40;1.40;;;21.20;66.50;;;;;;5066821;28;43492;-72
2022/09/19 10:48:38;;;;;;;1.37;1.37;;;21.20;66.80;;;;;;5064949;28;43399;-71
2022/09/19 10:51:08;;;;;;;1.40;1.40;;;21.10;67.10;;;;;;5069967;28;43836;-71
2022/09/19 10:53:38;;;;;;;1.40;1.40;;;21.10;67.00;;;;;;5066923;28;44058;-71
2022/09/19 10:56:08;;;;;;;1.50;1.50;;;21.00;66.90;;;;;;5066432;28;43335;-72
2022/09/19 10:58:39;;;;;;;1.60;1.50;;;21.00;67.00;;;;;;5063130;28;43466;-72
2022/09/19 11:01:21;;;;;;;1.30;1.30;;;21.00;67.40;;;;;;5070087;28;43558;-70
2022/09/19 11:04:02;;;;;;;1.43;1.43;;;21.00;67.50;;;;;;5084614;27;43862;-71
2022/09/19 11:06:30;;;;;;;1.43;1.40;;;21.20;68.00;;;;;;5065215;28;43401;-70
2022/09/19 11:08:59;;;;;;;1.30;1.30;;;21.30;66.80;;;;;;5061003;28;44340;-71
2022/09/19 11:11:37;;;;;;;1.43;1.43;;;21.40;66.40;;;;;;5067125;28;43538;-71
2022/09/19 11:14:18;;;;;;;1.30;1.30;;;21.40;66.20;;;;;;5066397;28;43854;-69
2022/09/19 11:17:01;;;;;;;1.20;1.20;;;21.30;66.20;;;;;;5068676;28;43397;-71
2022/09/19 11:19:49;;;;;;;1.13;1.13;;;21.20;66.30;;;;;;5069820;28;43430;-71
2022/09/19 11:22:31;;;;;;;1.27;1.23;;;21.20;66.60;;;;;;5065968;28;44090;-72
2022/09/19 11:25:07;;;;;;;1.33;1.30;;;21.10;67.10;;;;;;5066362;28;44053;-70
2022/09/19 11:27:49;;;;;;;1.00;1.00;;;21.10;67.00;;;;;;5068271;28;43408;-73
2022/09/19 11:30:18;;;;;;;1.33;1.33;;;21.10;67.00;;;;;;5069994;28;43477;-71
2022/09/19 11:33:16;;;;;;;1.60;1.60;;;21.10;67.10;;;;;;5062922;28;43416;-70
2022/09/19 11:36:29;;;;;;;1.40;1.40;;;21.00;67.50;;;;;;5063010;28;43667;-71
2022/09/19 11:39:03;;;;;;;1.40;1.40;;;21.00;67.30;;;;;;5068150;28;43328;-73
2022/09/19 11:41:59;;;;;;;1.43;1.40;;;21.00;67.20;;;;;;5063784;28;43409;-71
2022/09/19 11:44:34;;;;;;;1.23;1.23;;;21.00;67.20;;;;;;5068248;28;44008;-70
2022/09/19 11:47:18;;;;;;;1.40;1.40;;;21.00;67.30;;;;;;5085653;27;43838;-70
2022/09/19 11:49:54;;;;;;;1.23;1.23;;;21.00;67.70;;;;;;5161762;22;43608;-74
2022/09/19 11:52:30;;;;;;;1.40;1.40;;;21.10;67.60;;;;;;5023975;28;43447;-74
2022/09/19 11:55:09;;;;;;;1.07;1.07;;;21.20;67.20;;;;;;5041200;28;43506;-74
2022/09/19 11:57:39;;;;;;;1.30;1.30;;;21.30;66.70;;;;;;5016624;28;44060;-76
2022/09/19 12:00:13;;;;;;;1.40;1.40;;;21.40;66.40;;;;;;5032279;28;43515;-74
2022/09/19 12:03:16;;;;;;;1.37;1.37;;;21.40;66.20;;;;;;5031400;28;43920;-75
2022/09/19 12:06:04;;;;;;;1.30;1.30;;;21.30;66.30;;;;;;5021060;28;43601;-76
2022/09/19 12:08:45;;;;;;;1.20;1.20;;;21.20;66.50;;;;;;5026204;28;43832;-78
2022/09/19 12:11:14;;;;;;;1.20;1.20;;;21.20;66.90;;;;;;5051292;28;43446;-80
2022/09/19 12:13:46;;;;;;;1.50;1.50;;;21.10;67.10;;;;;;5028927;28;43368;-79
2022/09/19 12:16:20;;;;;;;1.13;1.13;;;21.10;67.00;;;;;;5026732;28;43531;-80
2022/09/19 12:18:58;;;;;;;1.50;1.50;;;21.10;67.00;;;;;;5038880;28;45448;-78
2022/09/19 12:21:30;;;;;;;1.30;1.30;;;21.00;67.70;;;;;;5052751;28;43805;-76
2022/09/19 12:26:55;;;;;;;1.23;1.23;;;21.00;67.40;;;;;;5025478;28;43543;-75
2022/09/19 12:29:28;;;;;;;1.10;1.10;;;21.00;67.20;;;;;;5029935;28;44038;-75
2022/09/19 12:31:59;;;;;;;1.10;1.10;;;21.00;67.10;;;;;;5024993;28;44367;-74
2022/09/19 12:34:32;;;;;;;1.13;1.13;;;21.00;67.20;;;;;;5027609;28;44012;-75
2022/09/19 12:37:02;;;;;;;1.20;1.20;;;21.00;67.70;;;;;;5026849;28;43813;-76
2022/09/19 12:39:37;;;;;;;1.20;1.20;;;21.00;67.60;;;;;;5027449;28;45549;-75
2022/09/19 12:42:08;;;;;;;1.33;1.33;;;21.10;67.30;;;;;;5027625;28;44580;-76
2022/09/19 12:44:37;;;;;;;1.10;1.10;;;21.30;66.90;;;;;;5047834;28;43458;-78
2022/09/19 12:47:13;;;;;;;1.10;1.10;;;21.40;66.40;;;;;;5047349;28;43667;-77
2022/09/19 12:50:00;;;;;;;1.10;1.10;;;21.40;66.20;;;;;;5020792;28;44149;-75
2022/09/19 12:52:30;;;;;;;1.03;1.03;;;21.30;66.20;;;;;;5019057;28;43435;-74
2022/09/19 12:55:03;;;;;;;1.03;1.03;;;21.20;66.40;;;;;;5014950;28;43499;-76
2022/09/19 12:57:41;;;;;;;1.20;1.20;;;21.20;66.60;;;;;;5018683;28;44199;-77
2022/09/19 13:00:13;;;;;;;1.20;1.20;;;21.10;67.20;;;;;;5015490;28;44238;-75
2022/09/19 13:02:43;;;;;;;1.23;1.23;;;21.10;67.10;;;;;;5016960;28;44754;-76
2022/09/19 13:05:14;;;;;;;1.20;1.20;;;21.10;67.10;;;;;;5015620;28;43551;-76
2022/09/19 13:07:43;;;;;;;1.10;1.10;;;21.00;67.00;;;;;;5019262;28;44099;-75
2022/09/19 13:10:18;;;;;;;0.90;0.90;;;21.00;67.20;;;;;;5020520;28;43694;-76
2022/09/19 13:12:48;;;;;;;1.17;1.17;;;21.00;67.60;;;;;;5016907;28;44605;-77
2022/09/19 13:15:22;;;;;;;1.20;1.20;;;21.00;67.50;;;;;;5024370;28;43524;-74
2022/09/19 13:23:35;;;;;;;1.13;1.13;;;21.20;66.90;;;;;;5007678;28;44756;-75
2022/09/19 13:26:24;;;;;;;1.10;1.10;;;21.10;67.20;;;;;;5021750;28;43457;-74
2022/09/19 13:28:53;;;;;;;1.00;1.00;;;21.10;67.10;;;;;;5018305;28;43706;-77
2022/09/19 13:31:26;;;;;;;1.27;1.27;;;21.10;67.00;;;;;;5016590;28;43603;-81
2022/09/19 13:33:54;;;;;;;1.00;1.00;;;21.10;67.10;;;;;;5020966;28;43483;-80
2022/09/19 13:36:40;;;;;;;1.13;1.13;;;21.00;67.10;;;;;;5014106;28;44044;-77
2022/09/19 13:39:41;;;;;;;1.00;1.00;;;21.00;67.50;;;;;;5018588;28;43486;-76
2022/09/19 13:42:11;;;;;;;1.10;1.10;;;21.10;67.40;;;;;;5012148;28;43819;-77
2022/09/19 13:44:41;;;;;;;1.17;1.13;;;21.20;67.00;;;;;;5011488;28;43560;-76
2022/09/19 13:47:19;;;;;;;1.30;1.30;;;21.20;66.60;;;;;;5022612;28;43511;-71